createdAt,value
2022-08-05T00:01:27.849Z,75429.53
2022-08-05T00:03:57.078Z,75421.44
2022-08-05T00:06:32.170Z,75427.50
2022-08-05T00:09:01.107Z,75425.47
2022-08-05T00:11:34.835Z,75433.59
2022-08-05T00:14:16.940Z,75433.59
2022-08-05T00:16:52.421Z,75441.69
2022-08-05T00:19:24.762Z,75445.75
2022-08-05T00:22:00.227Z,75457.91
2022-08-05T00:24:31.130Z,75453.84
2022-08-05T00:26:59.221Z,75453.84
2022-08-05T00:29:27.519Z,75457.91
2022-08-05T00:32:10.986Z,75459.94
2022-08-05T00:35:04.095Z,75461.97
2022-08-05T00:37:29.593Z,75461.97
2022-08-05T00:40:17.869Z,75466.00
2022-08-05T00:43:01.366Z,75466.00
2022-08-05T00:45:42.865Z,75466.00
2022-08-05T00:48:13.777Z,75470.06
2022-08-05T00:50:44.372Z,75461.97
2022-08-05T00:53:45.421Z,75461.97
2022-08-05T00:56:07.933Z,75453.84
2022-08-05T00:58:35.689Z,75451.81
2022-08-05T01:01:08.534Z,75453.84
2022-08-05T01:03:37.867Z,75445.75
2022-08-05T01:06:05.613Z,75447.78
2022-08-05T01:08:43.245Z,75453.84
2022-08-05T01:11:21.713Z,75449.81
2022-08-05T01:14:00.060Z,75445.75
2022-08-05T01:16:34.542Z,75453.84
2022-08-05T01:20:02.306Z,75453.84
2022-08-05T01:23:14.936Z,75449.81
2022-08-05T01:26:07.295Z,75453.84
2022-08-05T01:28:48.970Z,75449.81
2022-08-05T01:31:44.826Z,75455.88
2022-08-05T01:34:17.756Z,75453.84
2022-08-05T01:36:53.750Z,75459.94
2022-08-05T01:39:36.839Z,75459.94
2022-08-05T01:42:13.784Z,75466.00
2022-08-05T01:44:45.663Z,75470.06
2022-08-05T01:47:22.271Z,75466.00
2022-08-05T01:50:01.552Z,75463.97
2022-08-05T01:52:31.635Z,75470.06
2022-08-05T01:55:04.462Z,75478.16
2022-08-05T01:58:10.296Z,75480.19
2022-08-05T02:00:30.617Z,75476.16
2022-08-05T02:03:03.493Z,75482.22
2022-08-05T02:05:35.823Z,75482.22
2022-08-05T02:08:05.119Z,75486.28
2022-08-05T02:10:41.811Z,75486.28
2022-08-05T02:13:18.941Z,75490.31
2022-08-05T02:15:58.342Z,75486.28
2022-08-05T02:18:34.783Z,75488.31
2022-08-05T02:21:28.595Z,75486.28
2022-08-05T02:24:06.357Z,75486.28
2022-08-05T02:26:54.018Z,75488.31
2022-08-05T02:29:59.199Z,75498.44
2022-08-05T02:32:23.775Z,75506.53
2022-08-05T02:35:01.981Z,75510.59
2022-08-05T02:37:38.762Z,75514.66
2022-08-05T02:40:09.606Z,75518.69
2022-08-05T02:42:37.784Z,75522.75
2022-08-05T02:45:07.096Z,75526.81
2022-08-05T02:48:07.389Z,75526.81
2022-08-05T02:50:24.462Z,75526.81
2022-08-05T02:52:52.654Z,75526.81
2022-08-05T02:55:48.336Z,75526.81
2022-08-05T02:58:10.282Z,75522.75
2022-08-05T03:00:41.750Z,75516.66
2022-08-05T03:03:17.207Z,75514.66
2022-08-05T03:06:55.959Z,75518.69
2022-08-05T03:08:36.515Z,75510.59
2022-08-05T03:11:56.441Z,75516.66
2022-08-05T03:14:03.322Z,75518.69
2022-08-05T03:16:31.632Z,75514.66
2022-08-05T03:19:00.512Z,75510.59
2022-08-05T03:21:28.681Z,75514.66
2022-08-05T03:23:56.951Z,75514.66
2022-08-05T03:26:31.659Z,75510.59
2022-08-05T03:28:59.978Z,75506.53
2022-08-05T03:31:56.257Z,75504.50
2022-08-05T03:34:15.789Z,75502.50
2022-08-05T03:36:43.811Z,75498.44
2022-08-05T03:39:19.880Z,75498.44
2022-08-05T03:41:53.725Z,75488.31
2022-08-05T03:44:24.194Z,75488.31
2022-08-05T03:46:51.731Z,75490.31
2022-08-05T03:49:19.153Z,75488.31
2022-08-05T03:52:39.253Z,75486.28
2022-08-05T03:55:53.093Z,75482.22
2022-08-05T03:57:41.801Z,75482.22
2022-08-05T04:00:15.487Z,75474.13
2022-08-05T04:02:58.649Z,75474.13
2022-08-05T04:05:33.711Z,75466.00
2022-08-05T04:08:14.733Z,75457.91
2022-08-05T04:10:58.549Z,75451.81
2022-08-05T04:13:50.610Z,75457.91
2022-08-05T04:16:14.501Z,75459.94
2022-08-05T04:18:41.585Z,75449.81
2022-08-05T04:21:11.144Z,75441.69
2022-08-05T04:23:58.426Z,75429.53
2022-08-05T04:26:26.459Z,75421.44
2022-08-05T04:29:00.262Z,75409.28
2022-08-05T04:31:38.782Z,75393.06
2022-08-05T04:34:31.897Z,75384.97
2022-08-05T04:36:53.948Z,75364.69
2022-08-05T04:39:21.688Z,75344.44
2022-08-05T04:41:51.119Z,75356.59
2022-08-05T04:44:21.518Z,75332.28
2022-08-05T04:46:56.395Z,75328.22
2022-08-05T04:49:24.914Z,75316.06
2022-08-05T04:52:07.680Z,75318.09
2022-08-05T04:54:35.102Z,75312.00
2022-08-05T04:57:01.908Z,75303.91
2022-08-05T04:59:38.607Z,75293.78
2022-08-05T05:02:41.285Z,75283.63
2022-08-05T05:05:02.237Z,75269.44
2022-08-05T05:07:32.148Z,75267.44
2022-08-05T05:10:04.567Z,75255.25
2022-08-05T05:12:32.175Z,75245.13
2022-08-05T05:14:58.983Z,75230.94
2022-08-05T05:17:56.279Z,75222.84
2022-08-05T05:20:28.259Z,75198.53
2022-08-05T05:22:57.716Z,75202.59
2022-08-05T05:25:32.590Z,75194.47
2022-08-05T05:28:00.069Z,75190.44
2022-08-05T05:30:29.316Z,75178.28
2022-08-05T05:33:00.723Z,75174.22
2022-08-05T05:35:38.014Z,75168.13
2022-08-05T05:38:09.193Z,75137.75
2022-08-05T05:40:48.352Z,75125.59
2022-08-05T05:43:22.315Z,75115.47
2022-08-05T05:46:08.498Z,75117.47
2022-08-05T05:48:41.882Z,75109.38
2022-08-05T05:51:14.911Z,75113.44
2022-08-05T05:53:54.334Z,75109.38
2022-08-05T05:56:34.147Z,75097.22
2022-08-05T05:59:05.272Z,75085.06
2022-08-05T06:01:39.819Z,75076.97
2022-08-05T06:04:12.642Z,75070.88
2022-08-05T06:06:42.981Z,75048.59
2022-08-05T06:09:16.627Z,75048.59
2022-08-05T06:11:59.350Z,75028.31
2022-08-05T06:14:28.858Z,75016.16
2022-08-05T06:16:57.028Z,75008.06
2022-08-05T06:19:26.134Z,75002.00
2022-08-05T06:22:01.414Z,74991.84
2022-08-05T06:24:28.418Z,74985.78
2022-08-05T06:26:56.072Z,74967.53
2022-08-05T06:29:25.503Z,74967.53
2022-08-05T06:32:26.301Z,74955.38
2022-08-05T06:34:58.693Z,74943.22
2022-08-05T06:37:39.412Z,74927.03
2022-08-05T06:40:18.581Z,74914.88
2022-08-05T06:42:52.059Z,74906.75
2022-08-05T06:45:45.135Z,74900.69
2022-08-05T06:48:47.134Z,74892.56
2022-08-05T06:50:56.949Z,74882.44
2022-08-05T06:53:28.224Z,74874.34
2022-08-05T06:55:58.249Z,74866.25
2022-08-05T06:58:35.311Z,74860.16
2022-08-05T07:01:07.093Z,74852.06
2022-08-05T07:03:35.082Z,74841.94
2022-08-05T07:06:05.662Z,74829.78
2022-08-05T07:08:47.803Z,74821.66
2022-08-05T07:11:22.591Z,74809.50
2022-08-05T07:14:15.510Z,74789.25
2022-08-05T07:17:58.595Z,74781.16
2022-08-05T07:20:16.651Z,74775.06
2022-08-05T07:22:28.102Z,74756.84
2022-08-05T07:25:23.584Z,74748.72
2022-08-05T07:27:58.526Z,74744.69
2022-08-05T07:30:33.154Z,74746.69
2022-08-05T07:33:05.571Z,74744.69
2022-08-05T07:36:01.434Z,74738.59
2022-08-05T07:38:33.775Z,74732.53
2022-08-05T07:42:07.315Z,74698.06
2022-08-05T07:43:57.522Z,74692.00
2022-08-05T07:46:26.726Z,74675.78
2022-08-05T07:49:01.750Z,74679.84
2022-08-05T07:51:37.295Z,74665.66
2022-08-05T07:54:08.546Z,74659.59
2022-08-05T07:57:00.033Z,74643.38
2022-08-05T07:59:38.342Z,74643.38
2022-08-05T08:02:10.603Z,74623.13
2022-08-05T08:04:47.656Z,74602.84
2022-08-05T08:07:16.089Z,74596.78
2022-08-05T08:09:46.085Z,74582.59
2022-08-05T08:12:35.036Z,74574.50
2022-08-05T08:15:04.461Z,74572.47
2022-08-05T08:17:32.959Z,74566.41
2022-08-05T08:20:22.756Z,74566.41
2022-08-05T08:22:54.324Z,74566.41
2022-08-05T08:25:26.895Z,74562.34
2022-08-05T08:28:18.368Z,74558.28
2022-08-05T08:30:47.890Z,74542.09
2022-08-05T08:33:17.658Z,74548.16
2022-08-05T08:35:52.828Z,74529.94
2022-08-05T08:38:36.023Z,74525.88
2022-08-05T08:41:09.953Z,74525.88
2022-08-05T08:45:19.669Z,74517.78
2022-08-05T08:46:28.653Z,74521.81
2022-08-05T08:49:07.886Z,74517.78
2022-08-05T08:52:04.032Z,74511.69
2022-08-05T08:54:42.307Z,74509.66
2022-08-05T08:57:11.007Z,74503.59
2022-08-05T08:59:38.908Z,74495.50
2022-08-05T09:02:09.265Z,74471.19
2022-08-05T09:04:58.213Z,74457.00
2022-08-05T09:07:28.919Z,74450.91
2022-08-05T09:09:56.660Z,74444.84
2022-08-05T09:12:27.746Z,74448.91
2022-08-05T09:14:59.397Z,74457.00
2022-08-05T09:17:42.606Z,74452.94
2022-08-05T09:20:36.552Z,74444.84
2022-08-05T09:23:18.608Z,74428.63
2022-08-05T09:26:02.418Z,74424.59
2022-08-05T09:28:33.544Z,74412.44
2022-08-05T09:31:43.580Z,74412.44
2022-08-05T09:34:01.597Z,74392.16
2022-08-05T09:36:59.705Z,74388.13
2022-08-05T09:39:41.571Z,74384.06
2022-08-05T09:42:23.195Z,74375.97
2022-08-05T09:44:56.607Z,74375.97
2022-08-05T09:47:48.370Z,74375.97
2022-08-05T09:50:37.545Z,74359.75
2022-08-05T09:53:05.592Z,74341.53
2022-08-05T09:55:56.675Z,74343.56
2022-08-05T09:58:23.433Z,74347.59
2022-08-05T10:01:13.242Z,74347.59
2022-08-05T10:03:59.215Z,74323.28
2022-08-05T10:06:28.052Z,74311.13
2022-08-05T10:08:56.421Z,74298.97
2022-08-05T10:11:23.752Z,74307.09
2022-08-05T10:13:58.480Z,74290.88
2022-08-05T10:16:41.578Z,74286.81
2022-08-05T10:19:11.826Z,74274.69
2022-08-05T10:21:40.368Z,74268.59
2022-08-05T10:24:15.317Z,74250.38
2022-08-05T10:26:48.995Z,74254.41
2022-08-05T10:29:24.114Z,74238.22
2022-08-05T10:32:53.124Z,74230.09
2022-08-05T10:34:55.449Z,74230.09
2022-08-05T10:37:22.758Z,74228.09
2022-08-05T10:40:17.481Z,74219.97
2022-08-05T10:42:50.637Z,74205.81
2022-08-05T10:45:39.840Z,74197.69
2022-08-05T10:48:39.545Z,74193.66
2022-08-05T10:51:23.060Z,74189.59
2022-08-05T10:54:00.861Z,74177.44
2022-08-05T10:56:31.217Z,74165.28
2022-08-05T10:58:58.352Z,74140.97
2022-08-05T11:01:55.128Z,74138.94
2022-08-05T11:04:43.348Z,74140.97
2022-08-05T11:07:15.399Z,74143.00
2022-08-05T11:09:47.574Z,74132.88
2022-08-05T11:12:45.414Z,74124.78
2022-08-05T11:15:21.306Z,74116.66
2022-08-05T11:17:59.450Z,74112.63
2022-08-05T11:20:45.185Z,74110.59
2022-08-05T11:23:33.378Z,74104.50
2022-08-05T11:26:12.282Z,74108.56
2022-08-05T11:28:43.139Z,74104.50
2022-08-05T11:31:10.580Z,74100.47
2022-08-05T11:33:46.218Z,74088.31
2022-08-05T11:36:42.684Z,74076.16
2022-08-05T11:39:12.249Z,74055.91
2022-08-05T11:42:01.946Z,74035.66
2022-08-05T11:44:53.074Z,74039.69
2022-08-05T11:47:48.439Z,74051.84
2022-08-05T11:50:14.354Z,74051.84
2022-08-05T11:52:43.996Z,74043.75
2022-08-05T11:55:13.342Z,74039.69
2022-08-05T11:58:10.616Z,74035.66
2022-08-05T12:00:38.407Z,74035.66
2022-08-05T12:03:23.895Z,74027.53
2022-08-05T12:06:05.971Z,74023.50
2022-08-05T12:08:33.522Z,74025.50
2022-08-05T12:11:06.057Z,74011.34
2022-08-05T12:13:49.263Z,74011.34
2022-08-05T12:16:26.984Z,73999.19
2022-08-05T12:18:55.693Z,74001.22
2022-08-05T12:21:49.826Z,73995.13
2022-08-05T12:24:18.988Z,73976.91
2022-08-05T12:26:50.188Z,73960.69
2022-08-05T12:29:22.765Z,73962.72
2022-08-05T12:31:58.494Z,73966.78
2022-08-05T12:34:33.716Z,73970.81
2022-08-05T12:37:16.253Z,73962.72
2022-08-05T12:39:48.536Z,73954.63
2022-08-05T12:42:19.851Z,73938.41
2022-08-05T12:44:47.411Z,73930.31
2022-08-05T12:47:26.166Z,73930.31
2022-08-05T12:50:03.200Z,73906.00
2022-08-05T12:52:42.364Z,73891.84
2022-08-05T12:55:21.984Z,73893.84
2022-08-05T12:58:49.514Z,73877.66
2022-08-05T13:02:01.238Z,73879.69
2022-08-05T13:03:32.903Z,73871.56
2022-08-05T13:06:07.240Z,73871.56
2022-08-05T13:08:38.962Z,73869.56
2022-08-05T13:11:08.188Z,73853.34
2022-08-05T13:14:05.135Z,73845.25
2022-08-05T13:16:27.990Z,73825.00
2022-08-05T13:18:59.623Z,73825.00
2022-08-05T13:21:28.363Z,73818.91
2022-08-05T13:24:05.867Z,73804.75
2022-08-05T13:26:36.370Z,73792.59
2022-08-05T13:29:05.001Z,73796.63
2022-08-05T13:32:02.795Z,73788.53
2022-08-05T13:34:22.157Z,73788.53
2022-08-05T13:36:53.216Z,73782.47
2022-08-05T13:40:13.488Z,73772.31
2022-08-05T13:42:14.511Z,73784.47
2022-08-05T13:44:45.542Z,73762.19
2022-08-05T13:47:36.030Z,73748.03
2022-08-05T13:50:04.719Z,73735.88
2022-08-05T13:52:35.336Z,73735.88
2022-08-05T13:55:07.842Z,73739.91
2022-08-05T13:57:51.050Z,73735.88
2022-08-05T14:00:26.985Z,73719.66
2022-08-05T14:02:56.726Z,73719.66
2022-08-05T14:05:48.107Z,73735.88
2022-08-05T14:08:20.359Z,73727.78
2022-08-05T14:10:48.581Z,73711.56
2022-08-05T14:13:15.776Z,73699.41
2022-08-05T14:16:04.602Z,73691.31
2022-08-05T14:18:30.523Z,73687.25
2022-08-05T14:20:58.882Z,73675.09
2022-08-05T14:23:33.705Z,73662.97
2022-08-05T14:26:04.923Z,73652.84
2022-08-05T14:28:33.257Z,73656.88
2022-08-05T14:31:01.720Z,73654.84
2022-08-05T14:33:56.409Z,73642.72
2022-08-05T14:36:21.308Z,73634.59
2022-08-05T14:38:50.588Z,73626.50
2022-08-05T14:41:18.713Z,73638.66
2022-08-05T14:44:00.095Z,73642.72
2022-08-05T14:46:30.809Z,73646.75
2022-08-05T14:49:06.249Z,73646.75
2022-08-05T14:51:42.751Z,73646.75
2022-08-05T14:54:29.586Z,73634.59
2022-08-05T14:56:59.291Z,73614.34
2022-08-05T14:59:29.504Z,73602.19
2022-08-05T15:02:04.058Z,73581.94
2022-08-05T15:04:43.373Z,73553.59
2022-08-05T15:07:12.094Z,73509.03
2022-08-05T15:10:01.320Z,73330.81
2022-08-05T15:12:40.930Z,73187.03
2022-08-05T15:15:16.133Z,72952.13
2022-08-05T15:17:47.096Z,72792.16
2022-08-05T15:20:24.629Z,72638.28
2022-08-05T15:22:54.945Z,72573.47
2022-08-05T15:25:41.315Z,72460.09
2022-08-05T15:28:13.367Z,72482.38
2022-08-05T15:30:43.365Z,72504.66
2022-08-05T15:33:11.761Z,72336.59
2022-08-05T15:35:45.362Z,72249.53
2022-08-05T15:38:33.752Z,72229.28
2022-08-05T15:41:23.844Z,72225.25
2022-08-05T15:43:48.405Z,72269.78
2022-08-05T15:46:15.813Z,72277.88
2022-08-05T15:48:53.016Z,72413.53
2022-08-05T15:52:04.492Z,72316.34
2022-08-05T15:54:16.111Z,72573.47
2022-08-05T15:56:43.614Z,72543.13
2022-08-05T15:59:21.648Z,72711.16
2022-08-05T16:01:53.718Z,72897.44
2022-08-05T16:04:25.527Z,73067.56
2022-08-05T16:06:56.744Z,73217.41
2022-08-05T16:09:25.438Z,73347.00
2022-08-05T16:11:54.094Z,73379.41
2022-08-05T16:14:22.572Z,73403.72
2022-08-05T16:16:50.406Z,73342.97
2022-08-05T16:19:25.391Z,73375.38
2022-08-05T16:22:05.281Z,73419.91
2022-08-05T16:24:41.348Z,73496.88
2022-08-05T16:28:00.276Z,73507.00
2022-08-05T16:30:28.892Z,73519.16
2022-08-05T16:32:57.974Z,73565.75
2022-08-05T16:35:28.478Z,73573.84
2022-08-05T16:38:02.423Z,73573.84
2022-08-05T16:40:52.079Z,73533.34
2022-08-05T16:43:41.860Z,73521.19
2022-08-05T16:46:23.476Z,73533.34
2022-08-05T16:48:52.056Z,73569.78
2022-08-05T16:51:20.735Z,73573.84
2022-08-05T16:54:03.049Z,73594.09
2022-08-05T16:56:53.740Z,73602.19
2022-08-05T16:59:20.613Z,73634.59
2022-08-05T17:01:54.825Z,73646.75
2022-08-05T17:04:28.171Z,73652.84
2022-08-05T17:07:00.933Z,73667.00
2022-08-05T17:09:30.192Z,73691.31
2022-08-05T17:11:59.232Z,73699.41
2022-08-05T17:14:36.987Z,73711.56
2022-08-05T17:17:14.484Z,73725.75
2022-08-05T17:19:45.350Z,73748.03
2022-08-05T17:22:25.101Z,73776.38
2022-08-05T17:24:58.287Z,73800.69
2022-08-05T17:30:50.719Z,73845.25
2022-08-05T17:33:20.431Z,73869.56
2022-08-05T17:36:07.686Z,73885.75
2022-08-05T17:38:34.472Z,73901.97
2022-08-05T17:41:01.891Z,73914.13
2022-08-05T17:43:46.939Z,73928.28
2022-08-05T17:46:16.151Z,73938.41
2022-08-05T17:48:45.224Z,73950.56
2022-08-05T17:51:21.574Z,73958.69
2022-08-05T17:53:54.538Z,73962.72
2022-08-05T17:56:22.905Z,73982.97
2022-08-05T17:58:55.541Z,73997.16
2022-08-05T18:01:22.737Z,74015.38
2022-08-05T18:04:04.076Z,74031.59
2022-08-05T18:06:31.942Z,74043.75
2022-08-05T18:08:59.390Z,74059.94
2022-08-05T18:11:33.105Z,74072.09
2022-08-05T18:14:07.464Z,74088.31
2022-08-05T18:16:51.459Z,74092.38
2022-08-05T18:19:22.798Z,74106.53
2022-08-05T18:22:09.086Z,74124.78
2022-08-05T18:24:39.467Z,74134.91
2022-08-05T18:27:18.176Z,74149.09
2022-08-05T18:29:54.128Z,74161.22
2022-08-05T18:32:27.665Z,74169.34
2022-08-05T18:34:56.730Z,74177.44
2022-08-05T18:37:34.440Z,74185.53
2022-08-05T18:40:34.157Z,74207.81
2022-08-05T18:42:58.531Z,74213.91
2022-08-05T18:45:41.004Z,74222.00
2022-08-05T18:48:10.973Z,74230.09
2022-08-05T18:52:02.813Z,74242.25
2022-08-05T18:53:45.897Z,74248.34
2022-08-05T18:56:17.721Z,74258.47
2022-08-05T18:58:50.904Z,74262.53
2022-08-05T19:01:33.342Z,74274.69
2022-08-05T19:04:12.274Z,74278.72
2022-08-05T19:06:45.288Z,74288.84
2022-08-05T19:09:12.446Z,74290.88
2022-08-05T19:12:00.628Z,74296.97
2022-08-05T19:14:44.768Z,74298.97
2022-08-05T19:17:14.410Z,74309.13
2022-08-05T19:19:46.907Z,74311.13
2022-08-05T19:22:17.239Z,74311.13
2022-08-05T19:24:54.555Z,74311.13
2022-08-05T19:27:27.833Z,74315.19
2022-08-05T19:29:57.945Z,74319.25
2022-08-05T19:32:26.366Z,74325.31
2022-08-05T19:34:55.947Z,74327.34
2022-08-05T19:37:29.853Z,74329.38
2022-08-05T19:40:12.085Z,74335.44
2022-08-05T19:42:39.211Z,74343.56
2022-08-05T19:45:07.259Z,74347.59
2022-08-05T19:47:37.275Z,74349.63
2022-08-05T19:50:06.107Z,74355.69
2022-08-05T19:52:35.884Z,74367.84
2022-08-05T19:55:08.766Z,74371.91
2022-08-05T19:58:07.033Z,74375.97
2022-08-05T20:00:37.621Z,74380.00
2022-08-05T20:03:09.075Z,74384.06
2022-08-05T20:05:43.051Z,74384.06
2022-08-05T20:08:10.675Z,74388.13
2022-08-05T20:10:38.093Z,74388.13
2022-08-05T20:13:10.978Z,74384.06
2022-08-05T20:15:52.535Z,74386.09
2022-08-05T20:18:33.391Z,74384.06
2022-08-05T20:21:04.675Z,74388.13
2022-08-05T20:23:39.702Z,74388.13
2022-08-05T20:26:17.710Z,74394.19
2022-08-05T20:28:48.825Z,74392.16
2022-08-05T20:31:16.858Z,74396.22
2022-08-05T20:33:45.111Z,74402.28
2022-08-05T20:36:14.139Z,74400.28
2022-08-05T20:38:53.519Z,74404.31
2022-08-05T20:41:27.145Z,74412.44
2022-08-05T20:44:18.649Z,74428.63
2022-08-05T20:46:58.383Z,74428.63
2022-08-05T20:49:26.755Z,74436.72
2022-08-05T20:51:54.838Z,74444.84
2022-08-05T20:54:43.631Z,74457.00
2022-08-05T20:57:42.715Z,74465.09
2022-08-05T21:00:20.054Z,74465.09
2022-08-05T21:02:57.000Z,74469.16
2022-08-05T21:05:24.813Z,74479.28
2022-08-05T21:07:52.394Z,74489.41
2022-08-05T21:10:20.398Z,74485.34
2022-08-05T21:12:57.669Z,74489.41
2022-08-05T21:15:36.288Z,74497.50
2022-08-05T21:18:03.854Z,74501.56
2022-08-05T21:20:32.967Z,74509.66
2022-08-05T21:23:00.840Z,74517.78
2022-08-05T21:25:34.055Z,74523.84
2022-08-05T21:28:02.050Z,74533.97
2022-08-05T21:30:29.135Z,74550.19
2022-08-05T21:32:56.017Z,74550.19
2022-08-05T21:35:29.950Z,74548.16
2022-08-05T21:38:10.641Z,74550.19
2022-08-05T21:40:39.493Z,74554.22
2022-08-05T21:43:08.623Z,74558.28
2022-08-05T21:45:57.540Z,74558.28
2022-08-05T21:48:28.512Z,74566.41
2022-08-05T21:50:56.243Z,74570.44
2022-08-05T21:53:27.237Z,74574.50
2022-08-05T21:56:05.841Z,74582.59
2022-08-05T21:58:56.937Z,74588.69
2022-08-05T22:01:24.989Z,74582.59
2022-08-05T22:03:53.838Z,74592.72
2022-08-05T22:06:22.388Z,74590.69
2022-08-05T22:08:52.106Z,74596.78
2022-08-05T22:11:35.036Z,74596.78
2022-08-05T22:14:32.931Z,74598.81
2022-08-05T22:16:57.009Z,74600.84
2022-08-05T22:20:01.157Z,74600.84
2022-08-05T22:22:15.595Z,74606.91
2022-08-05T22:25:01.622Z,74602.84
2022-08-05T22:28:04.968Z,74606.91
2022-08-05T22:30:35.416Z,74610.97
2022-08-05T22:33:15.407Z,74615.00
2022-08-05T22:35:48.475Z,74615.00
2022-08-05T22:38:19.608Z,74615.00
2022-08-05T22:40:50.047Z,74623.13
2022-08-05T22:43:36.604Z,74619.06
2022-08-05T22:46:12.147Z,74631.22
2022-08-05T22:48:42.120Z,74639.31
2022-08-05T22:51:22.482Z,74635.28
2022-08-05T22:53:51.868Z,74647.44
2022-08-05T22:56:30.609Z,74655.53
2022-08-05T22:59:00.126Z,74657.56
2022-08-05T23:01:50.600Z,74659.59
2022-08-05T23:04:18.362Z,74655.53
2022-08-05T23:06:47.861Z,74663.63
2022-08-05T23:09:26.988Z,74671.75
2022-08-05T23:11:54.504Z,74675.78
2022-08-05T23:14:22.664Z,74675.78
2022-08-05T23:17:09.089Z,74679.84
2022-08-05T23:19:46.680Z,74679.84
2022-08-05T23:22:19.222Z,74687.94
2022-08-05T23:24:51.421Z,74685.91
2022-08-05T23:27:19.669Z,74683.91
2022-08-05T23:29:50.683Z,74685.91
2022-08-05T23:32:22.933Z,74687.94
2022-08-05T23:34:50.873Z,74696.06
2022-08-05T23:37:18.462Z,74704.16
2022-08-05T23:39:54.342Z,74710.22
2022-08-05T23:42:23.613Z,74720.38
2022-08-05T23:44:57.202Z,74724.41
2022-08-05T23:47:25.011Z,74728.47
2022-08-05T23:49:56.472Z,74740.63
2022-08-05T23:52:27.611Z,74738.59
2022-08-05T23:55:10.037Z,74736.56
2022-08-05T23:57:37.833Z,74736.56
